createdAt,value
2023-03-06T00:00:33.893Z,2.4
2023-03-06T00:01:42.564Z,2.6
2023-03-06T00:02:52.375Z,2.6
2023-03-06T00:04:02.007Z,2.5
2023-03-06T00:05:09.661Z,2.3
2023-03-06T00:06:19.337Z,2.6
2023-03-06T00:07:29.009Z,2.2
2023-03-06T00:08:37.739Z,2.5
2023-03-06T00:09:47.458Z,2.4
2023-03-06T00:10:56.185Z,2.4
2023-03-06T00:12:04.881Z,2.9
2023-03-06T00:13:14.534Z,2.8
2023-03-06T00:14:22.222Z,2.6
2023-03-06T00:15:31.941Z,2.6
2023-03-06T00:16:41.631Z,2.5
2023-03-06T00:17:49.311Z,2.8
2023-03-06T00:18:59.031Z,2.5
2023-03-06T00:20:08.818Z,2.5
2023-03-06T00:21:18.458Z,2.8
2023-03-06T00:22:27.136Z,2.4
2023-03-06T00:23:36.840Z,2.8
2023-03-06T00:24:46.525Z,2.3
2023-03-06T00:25:55.345Z,1.8
2023-03-06T00:27:04.034Z,2.6
2023-03-06T00:28:13.696Z,2.1
2023-03-06T00:29:21.460Z,2.4
2023-03-06T00:30:31.181Z,2.2
2023-03-06T00:31:40.996Z,1.9
2023-03-06T00:32:48.598Z,3.1
2023-03-06T00:33:58.287Z,1.9
2023-03-06T00:35:08.116Z,2.2
2023-03-06T00:36:16.857Z,2.6
2023-03-06T00:37:26.520Z,2
2023-03-06T00:38:36.262Z,2
2023-03-06T00:39:45.935Z,2.6
2023-03-06T00:40:55.658Z,2.5
2023-03-06T00:42:03.310Z,2.1
2023-03-06T00:43:13.108Z,2.2
2023-03-06T00:44:21.940Z,2.3
2023-03-06T00:45:30.695Z,1.9
2023-03-06T00:46:40.485Z,2.5
2023-03-06T00:47:48.187Z,2.7
2023-03-06T00:48:57.879Z,1.9
2023-03-06T00:50:06.600Z,2.4
2023-03-06T00:51:16.288Z,2.4
2023-03-06T00:52:26.009Z,1.7
2023-03-06T00:53:34.703Z,2.3
2023-03-06T00:54:43.380Z,2.1
2023-03-06T00:55:53.096Z,2.1
2023-03-06T00:57:01.777Z,2.4
2023-03-06T00:58:11.497Z,2.2
2023-03-06T00:59:20.198Z,2.3
2023-03-06T01:00:27.924Z,2.5
2023-03-06T01:01:37.662Z,2.1
2023-03-06T01:02:46.327Z,1.8
2023-03-06T01:03:56.053Z,1.8
2023-03-06T01:05:05.715Z,2.2
2023-03-06T01:06:14.404Z,2
2023-03-06T01:07:24.124Z,2.6
2023-03-06T01:08:32.854Z,2.4
2023-03-06T01:09:42.480Z,2.5
2023-03-06T01:10:52.232Z,2
2023-03-06T01:11:59.964Z,2.7
2023-03-06T01:13:08.667Z,2.1
2023-03-06T01:14:18.359Z,1.6
2023-03-06T01:15:27.128Z,1.6
2023-03-06T01:16:36.801Z,2
2023-03-06T01:17:45.484Z,2.2
2023-03-06T01:18:54.198Z,2.1
2023-03-06T01:20:03.890Z,2.2
2023-03-06T01:21:11.674Z,2
2023-03-06T01:22:21.375Z,2.6
2023-03-06T01:23:31.067Z,2.4
2023-03-06T01:24:40.768Z,2.3
2023-03-06T01:25:50.463Z,2
2023-03-06T01:26:59.377Z,2.1
2023-03-06T01:28:07.057Z,2.3
2023-03-06T01:29:16.750Z,2.2
2023-03-06T01:30:26.428Z,2.2
2023-03-06T01:31:36.257Z,1.7
2023-03-06T01:32:45.955Z,1.9
2023-03-06T01:33:53.642Z,2.1
2023-03-06T01:35:03.326Z,2.4
2023-03-06T01:36:12.016Z,2
2023-03-06T01:37:20.706Z,2.2
2023-03-06T01:38:30.389Z,2.4
2023-03-06T01:39:40.051Z,1.9
2023-03-06T01:40:49.756Z,2.1
2023-03-06T01:41:59.506Z,2.2
2023-03-06T01:43:07.155Z,2.2
2023-03-06T01:44:16.829Z,2.1
2023-03-06T01:45:24.512Z,1.8
2023-03-06T01:46:34.203Z,2.2
2023-03-06T01:47:43.922Z,1.8
2023-03-06T01:48:51.633Z,2.7
2023-03-06T01:50:00.318Z,2
2023-03-06T01:51:09.991Z,2.3
2023-03-06T01:52:17.733Z,2
2023-03-06T01:53:27.555Z,1.7
2023-03-06T01:54:36.267Z,1.8
2023-03-06T01:55:46.010Z,1.9
2023-03-06T01:56:55.909Z,1.6
2023-03-06T01:58:03.537Z,1.6
2023-03-06T01:59:12.256Z,1.5
2023-03-06T02:00:22.021Z,1.9
2023-03-06T02:01:30.771Z,1.6
2023-03-06T02:02:40.412Z,1.9
2023-03-06T02:03:49.024Z,2.1
2023-03-06T02:04:57.684Z,1.6
2023-03-06T02:06:07.365Z,1.9
2023-03-06T02:07:16.096Z,1.8
2023-03-06T02:08:25.776Z,2.1
2023-03-06T02:09:35.451Z,1.9
2023-03-06T02:10:43.113Z,2
2023-03-06T02:11:52.856Z,1.8
2023-03-06T02:13:01.540Z,1.8
2023-03-06T02:14:09.192Z,2.2
2023-03-06T02:15:18.879Z,2.1
2023-03-06T02:19:29.617Z,2.5
2023-03-06T02:20:39.359Z,1.7
2023-03-06T02:21:49.146Z,2
2023-03-06T02:22:57.868Z,2.2
2023-03-06T02:24:07.568Z,1.6
2023-03-06T02:25:17.231Z,1.8
2023-03-06T02:26:24.881Z,2.2
2023-03-06T02:27:34.609Z,2
2023-03-06T02:28:43.286Z,1.7
2023-03-06T02:29:51.991Z,2.6
2023-03-06T02:31:01.721Z,2.3
2023-03-06T02:32:09.475Z,2.1
2023-03-06T02:33:18.146Z,2.1
2023-03-06T02:34:26.814Z,2.5
2023-03-06T02:35:35.551Z,1.9
2023-03-06T02:36:45.175Z,2.6
2023-03-06T02:37:53.909Z,2.3
2023-03-06T02:39:02.582Z,1.9
2023-03-06T02:40:12.272Z,1.8
2023-03-06T02:41:21.979Z,1.8
2023-03-06T02:42:30.731Z,2.1
2023-03-06T02:43:40.523Z,1.4
2023-03-06T02:44:48.246Z,2.2
2023-03-06T02:45:57.917Z,1.8
2023-03-06T02:47:06.543Z,1.5
2023-03-06T02:48:14.252Z,1.5
2023-03-06T02:49:21.953Z,1.8
2023-03-06T02:50:30.616Z,1.8
2023-03-06T02:51:39.387Z,1.4
2023-03-06T02:52:49.113Z,2.2
2023-03-06T02:53:57.832Z,1.6
2023-03-06T02:55:07.529Z,2
2023-03-06T02:56:16.160Z,2
2023-03-06T02:57:25.897Z,1.9
2023-03-06T02:58:35.642Z,1.7
2023-03-06T02:59:45.326Z,1.7
2023-03-06T03:00:54.022Z,1.3
2023-03-06T03:02:02.690Z,1.9
2023-03-06T03:03:11.466Z,1.6
2023-03-06T03:04:21.183Z,1.5
2023-03-06T03:05:29.839Z,1.7
2023-03-06T03:06:38.508Z,1.8
2023-03-06T03:07:48.201Z,1.9
2023-03-06T03:08:55.879Z,1.5
2023-03-06T03:10:05.549Z,2.6
2023-03-06T03:11:15.219Z,1.6
2023-03-06T03:12:23.900Z,2.1
2023-03-06T03:13:33.617Z,1.6
2023-03-06T03:14:42.304Z,1.1
2023-03-06T03:15:52.022Z,2
2023-03-06T03:17:01.681Z,2.1
2023-03-06T03:18:09.371Z,2.2
2023-03-06T03:19:19.121Z,2
2023-03-06T03:20:29.751Z,1.7
2023-03-06T03:21:39.517Z,2
2023-03-06T03:22:49.231Z,1.6
2023-03-06T03:23:57.899Z,1.6
2023-03-06T03:25:06.574Z,2.4
2023-03-06T03:26:16.238Z,1.6
2023-03-06T03:27:23.866Z,1.6
2023-03-06T03:28:33.603Z,2.4
2023-03-06T03:29:43.280Z,2.1
2023-03-06T03:30:51.962Z,2
2023-03-06T03:32:01.664Z,1.9
2023-03-06T03:33:10.386Z,2
2023-03-06T03:34:19.044Z,2
2023-03-06T03:35:28.745Z,2
2023-03-06T03:36:37.453Z,1.6
2023-03-06T03:37:46.143Z,2.1
2023-03-06T03:38:55.864Z,1.4
2023-03-06T03:40:02.561Z,1.8
2023-03-06T03:41:12.287Z,1.6
2023-03-06T03:42:20.977Z,1.8
2023-03-06T03:43:28.711Z,1.9
2023-03-06T03:44:38.380Z,2.2
2023-03-06T03:45:47.080Z,1.6
2023-03-06T03:46:55.839Z,1.9
2023-03-06T03:48:05.583Z,1.8
2023-03-06T03:49:14.290Z,1.3
2023-03-06T03:50:23.942Z,1.8
2023-03-06T03:51:33.618Z,1.3
2023-03-06T03:52:43.304Z,1.8
2023-03-06T03:53:51.991Z,1.5
2023-03-06T03:54:59.667Z,1.9
2023-03-06T03:56:09.339Z,1.7
2023-03-06T03:57:19.031Z,1.9
2023-03-06T03:58:29.107Z,1.9
2023-03-06T03:59:38.778Z,1.6
2023-03-06T04:00:48.437Z,1.5
2023-03-06T04:01:56.226Z,1.8
2023-03-06T04:03:05.843Z,1.8
2023-03-06T04:04:15.636Z,1.8
2023-03-06T04:05:24.328Z,2.2
2023-03-06T04:06:34.052Z,1.8
2023-03-06T04:07:42.813Z,2.3
2023-03-06T04:08:52.517Z,2.1
2023-03-06T04:10:01.173Z,1.9
2023-03-06T04:11:08.942Z,1.7
2023-03-06T04:12:18.622Z,1.6
2023-03-06T04:13:26.352Z,1.3
2023-03-06T04:14:35.003Z,2
2023-03-06T04:15:44.697Z,2.3
2023-03-06T04:16:53.378Z,1.7
2023-03-06T04:18:03.074Z,1.7
2023-03-06T04:19:12.832Z,1.5
2023-03-06T04:20:22.565Z,1.7
2023-03-06T04:21:31.260Z,2.1
2023-03-06T04:22:40.959Z,1.7
2023-03-06T04:23:49.652Z,1.4
2023-03-06T04:24:59.367Z,1.4
2023-03-06T04:26:09.024Z,1.5
2023-03-06T04:27:16.691Z,1.9
2023-03-06T04:28:26.409Z,1.8
2023-03-06T04:29:34.247Z,1.6
2023-03-06T04:30:42.964Z,1.4
2023-03-06T04:31:52.691Z,1.7
2023-03-06T04:33:00.377Z,1.9
2023-03-06T04:34:10.109Z,1.7
2023-03-06T04:35:18.793Z,2
2023-03-06T04:36:28.487Z,1.7
2023-03-06T04:37:38.239Z,1.8
2023-03-06T04:38:46.968Z,1.1
2023-03-06T04:39:56.690Z,1.7
2023-03-06T04:41:06.477Z,1.6
2023-03-06T04:42:16.177Z,1.6
2023-03-06T04:43:25.917Z,1.3
2023-03-06T04:44:34.648Z,1.6
2023-03-06T04:45:44.369Z,1.9
2023-03-06T04:46:55.016Z,2.2
2023-03-06T04:48:04.729Z,1.3
2023-03-06T04:49:14.449Z,1.6
2023-03-06T04:50:24.158Z,1.7
2023-03-06T04:51:33.862Z,1.9
2023-03-06T04:52:43.522Z,1.8
2023-03-06T04:53:51.202Z,1.6
2023-03-06T04:55:00.152Z,2
2023-03-06T04:56:11.709Z,1.8
2023-03-06T04:57:21.725Z,1.5
2023-03-06T04:58:33.412Z,1.8
2023-03-06T04:59:43.117Z,1.9
2023-03-06T05:00:50.890Z,1.3
2023-03-06T05:02:00.634Z,1.9
2023-03-06T05:03:09.258Z,1.9
2023-03-06T05:04:16.958Z,2.1
2023-03-06T05:05:26.709Z,1.8
2023-03-06T05:06:36.529Z,1.5
2023-03-06T05:07:45.185Z,1.7
2023-03-06T05:08:54.872Z,2
2023-03-06T05:10:03.609Z,1.3
2023-03-06T05:11:13.294Z,1.6
2023-03-06T05:12:23.962Z,1.4
2023-03-06T05:13:31.698Z,2
2023-03-06T05:14:41.375Z,2
2023-03-06T05:15:49.116Z,1.4
2023-03-06T05:16:58.759Z,1.7
2023-03-06T05:18:08.432Z,2.2
2023-03-06T05:19:16.126Z,1.7
2023-03-06T05:20:25.894Z,1.7
2023-03-06T05:21:35.556Z,1.4
2023-03-06T05:22:45.244Z,1.4
2023-03-06T05:23:54.950Z,1.6
2023-03-06T05:25:04.732Z,1.7
2023-03-06T05:26:14.420Z,2
2023-03-06T05:27:24.035Z,2.1
2023-03-06T05:28:31.691Z,1.6
2023-03-06T05:29:41.459Z,2.6
2023-03-06T05:30:51.140Z,1.8
2023-03-06T05:31:58.882Z,1.8
2023-03-06T05:33:08.539Z,1.9
2023-03-06T05:34:17.211Z,1.9
2023-03-06T05:35:26.012Z,2
2023-03-06T05:36:36.214Z,1.4
2023-03-06T05:37:44.880Z,1.5
2023-03-06T05:38:54.620Z,2
2023-03-06T05:40:03.904Z,1.6
2023-03-06T05:41:12.522Z,1.6
2023-03-06T05:42:22.275Z,1.3
2023-03-06T05:43:29.996Z,1.7
2023-03-06T05:44:39.718Z,1.5
2023-03-06T05:45:49.490Z,1.3
2023-03-06T05:46:58.105Z,1.8
2023-03-06T05:48:07.864Z,2.3
2023-03-06T05:49:17.525Z,1.8
2023-03-06T05:50:27.254Z,2
2023-03-06T05:51:36.534Z,1.5
2023-03-06T05:52:44.178Z,1.4
2023-03-06T05:53:53.859Z,1.7
2023-03-06T05:55:03.564Z,1.4
2023-03-06T05:56:12.233Z,1.4
2023-03-06T05:57:21.940Z,1.6
2023-03-06T05:58:30.612Z,1.1
2023-03-06T05:59:40.297Z,2
2023-03-06T06:00:50.013Z,1.7
2023-03-06T06:01:58.746Z,1.9
2023-03-06T06:03:07.476Z,1.5
2023-03-06T06:04:17.094Z,1.8
2023-03-06T06:05:24.782Z,1.9
2023-03-06T06:06:33.477Z,1.9
2023-03-06T06:07:43.122Z,1.5
2023-03-06T06:08:50.801Z,1.8
2023-03-06T06:10:02.379Z,1.6
2023-03-06T06:11:11.177Z,1.5
2023-03-06T06:12:20.808Z,2.3
2023-03-06T06:13:30.477Z,1.9
2023-03-06T06:14:38.201Z,2
2023-03-06T06:15:47.906Z,1.6
2023-03-06T06:16:56.561Z,1.5
2023-03-06T06:18:04.216Z,1.7
2023-03-06T06:19:13.892Z,1.6
2023-03-06T06:20:23.582Z,2.2
2023-03-06T06:21:31.268Z,1.9
2023-03-06T06:22:40.936Z,1.6
2023-03-06T06:23:49.589Z,1.8
2023-03-06T06:24:57.275Z,2
2023-03-06T06:26:06.974Z,1.5
2023-03-06T06:27:16.661Z,2.1
2023-03-06T06:28:25.341Z,1.7
2023-03-06T06:29:35.027Z,1.8
2023-03-06T06:30:42.700Z,1.2
2023-03-06T06:31:52.474Z,1.2
2023-03-06T06:33:02.141Z,1.1
2023-03-06T06:34:09.809Z,2
2023-03-06T06:35:18.448Z,1.6
2023-03-06T06:36:26.149Z,2.4
2023-03-06T06:37:35.801Z,1.6
2023-03-06T06:38:45.473Z,2
2023-03-06T06:39:54.107Z,1.6
2023-03-06T06:41:33.297Z,1.4
2023-03-06T06:42:30.441Z,1.7
2023-03-06T06:43:25.185Z,1.7
2023-03-06T06:44:35.831Z,1.8
2023-03-06T06:45:43.561Z,1.6
2023-03-06T06:48:03.970Z,1.6
2023-03-06T06:49:11.552Z,1.8
2023-03-06T06:50:21.220Z,1.9
2023-03-06T06:51:30.913Z,2
2023-03-06T06:52:38.603Z,1.7
2023-03-06T06:53:48.264Z,1.9
2023-03-06T06:54:56.938Z,1.1
2023-03-06T06:56:05.634Z,1.9
2023-03-06T06:57:15.331Z,1.7
2023-03-06T06:58:23.984Z,2.3
2023-03-06T06:59:33.683Z,1.8
2023-03-06T07:00:42.318Z,1.9
2023-03-06T07:01:51.098Z,2.1
2023-03-06T07:03:00.712Z,1.7
2023-03-06T07:04:10.455Z,2.4
2023-03-06T07:05:21.061Z,1.7
2023-03-06T07:06:29.785Z,2
2023-03-06T07:07:38.444Z,2.5
2023-03-06T07:08:48.110Z,1.7
2023-03-06T07:09:57.905Z,2.2
2023-03-06T07:11:05.498Z,1.8
2023-03-06T07:12:15.193Z,1.9
2023-03-06T07:13:23.841Z,1.7
2023-03-06T07:14:33.507Z,1.9
2023-03-06T07:15:43.252Z,1.6
2023-03-06T07:16:52.875Z,1.7
2023-03-06T07:18:02.555Z,1.6
2023-03-06T07:19:12.200Z,1.8
2023-03-06T07:20:21.891Z,2.2
2023-03-06T07:21:31.620Z,2.7
2023-03-06T07:22:50.675Z,1.7
2023-03-06T07:23:50.949Z,1.4
2023-03-06T07:25:00.619Z,1.8
2023-03-06T07:26:10.293Z,1.8
2023-03-06T07:27:20.033Z,1.7
2023-03-06T07:28:27.675Z,2
2023-03-06T07:29:37.340Z,2.1
2023-03-06T07:30:47.042Z,1.4
2023-03-06T07:31:54.725Z,1.9
2023-03-06T07:33:03.371Z,1.7
2023-03-06T07:34:13.019Z,2
2023-03-06T07:35:22.701Z,2.2
2023-03-06T07:36:32.337Z,1.9
2023-03-06T07:37:41.043Z,1.2
2023-03-06T07:38:50.718Z,1.6
2023-03-06T07:40:00.478Z,2
2023-03-06T07:41:10.174Z,1.6
2023-03-06T07:42:18.918Z,2.6
2023-03-06T07:43:28.596Z,2.5
2023-03-06T07:44:37.278Z,2.2
2023-03-06T07:45:46.937Z,2.5
2023-03-06T07:46:56.752Z,2.2
2023-03-06T07:48:06.558Z,2.1
2023-03-06T07:49:15.975Z,2.1
2023-03-06T07:50:23.707Z,2.4
2023-03-06T07:51:33.371Z,2.2
2023-03-06T07:52:43.077Z,2.2
2023-03-06T07:53:52.763Z,2.3
2023-03-06T07:55:02.526Z,2.1
2023-03-06T07:56:11.213Z,2.1
2023-03-06T07:57:18.871Z,2.1
2023-03-06T07:58:28.531Z,2
2023-03-06T07:59:37.249Z,2.1
2023-03-06T08:00:46.928Z,2.4
2023-03-06T08:01:56.613Z,2.2
2023-03-06T08:03:06.400Z,2.6
2023-03-06T08:04:16.037Z,2.2
2023-03-06T08:05:24.695Z,2.1
2023-03-06T08:06:32.351Z,3
2023-03-06T08:07:42.020Z,2.1
2023-03-06T08:08:50.699Z,2.5
2023-03-06T08:10:00.410Z,2.5
2023-03-06T08:11:10.090Z,2.3
2023-03-06T08:12:19.727Z,2.5
2023-03-06T08:13:29.407Z,2.3
2023-03-06T08:14:39.119Z,2.2
2023-03-06T08:15:46.759Z,2.5
2023-03-06T08:16:55.452Z,1.8
2023-03-06T08:18:05.177Z,2.3
2023-03-06T08:19:14.863Z,2
2023-03-06T08:20:24.497Z,2.2
2023-03-06T08:21:33.162Z,2.4
2023-03-06T08:22:41.826Z,2.2
2023-03-06T08:23:51.531Z,1.8
2023-03-06T08:25:00.220Z,2.3
2023-03-06T08:26:08.938Z,2.2
2023-03-06T08:27:18.639Z,2.5
2023-03-06T08:28:27.324Z,2.4
2023-03-06T08:29:37.084Z,2.2
2023-03-06T08:30:45.802Z,2.5
2023-03-06T08:31:54.551Z,2.4
2023-03-06T08:33:04.293Z,2.1
2023-03-06T08:34:11.944Z,2.4
2023-03-06T08:35:21.680Z,2.7
2023-03-06T08:36:31.336Z,2.3
2023-03-06T08:37:39.034Z,2.5
2023-03-06T08:38:48.706Z,2.7
2023-03-06T08:39:58.382Z,2.4
2023-03-06T08:41:06.058Z,2.3
2023-03-06T08:42:15.783Z,2.7
2023-03-06T08:43:25.536Z,2.8
2023-03-06T08:44:34.252Z,2.4
2023-03-06T08:45:43.963Z,2.9
2023-03-06T08:46:52.688Z,2.7
2023-03-06T08:48:02.386Z,2.6
2023-03-06T08:49:12.121Z,2.5
2023-03-06T08:50:21.835Z,2.4
2023-03-06T08:51:31.544Z,2.9
2023-03-06T08:52:39.177Z,2.7
2023-03-06T08:53:51.876Z,2.5
2023-03-06T08:55:01.104Z,3
2023-03-06T08:56:08.849Z,3.3
2023-03-06T08:57:18.502Z,3.7
2023-03-06T08:58:28.217Z,4.2
2023-03-06T08:59:37.896Z,4.2
2023-03-06T09:00:47.707Z,4.9
2023-03-06T09:01:55.392Z,4.7
2023-03-06T09:03:03.992Z,4
2023-03-06T09:04:13.730Z,4
2023-03-06T09:05:21.387Z,4.1
2023-03-06T09:06:31.061Z,4.2
2023-03-06T09:07:40.797Z,3
2023-03-06T09:08:48.488Z,3.4
2023-03-06T09:09:58.174Z,3.2
2023-03-06T09:11:07.815Z,3.4
2023-03-06T09:12:17.497Z,2.7
2023-03-06T09:13:27.164Z,3.2
2023-03-06T09:14:34.870Z,3.2
2023-03-06T09:15:44.572Z,2.8
2023-03-06T09:16:53.234Z,3.1
2023-03-06T09:18:00.889Z,3
2023-03-06T09:19:10.591Z,2.8
2023-03-06T09:20:19.357Z,2.5
2023-03-06T09:21:28.023Z,3.4
2023-03-06T09:22:37.694Z,2.8
2023-03-06T09:23:47.409Z,3.8
2023-03-06T09:24:57.074Z,4
2023-03-06T09:26:06.750Z,3.7
2023-03-06T09:27:15.449Z,3.7
2023-03-06T09:28:25.101Z,4.7
2023-03-06T09:29:32.799Z,4.7
2023-03-06T09:30:41.563Z,4.1
2023-03-06T09:31:51.218Z,4.3
2023-03-06T09:32:59.886Z,4.4
2023-03-06T09:34:09.594Z,3.9
2023-03-06T09:35:18.260Z,3.5
2023-03-06T09:36:26.910Z,2.4
2023-03-06T09:37:36.617Z,2.6
2023-03-06T09:38:44.340Z,2.9
2023-03-06T09:39:54.116Z,2.5
2023-03-06T09:41:03.696Z,2.1
2023-03-06T09:42:11.357Z,2.2
2023-03-06T09:43:21.101Z,2.7
2023-03-06T09:44:30.976Z,2.9
2023-03-06T09:45:46.735Z,2.3
2023-03-06T09:46:55.374Z,2
2023-03-06T09:48:05.037Z,2.5
2023-03-06T09:49:12.692Z,2.4
2023-03-06T09:50:22.548Z,2.1
2023-03-06T09:51:31.201Z,2.2
2023-03-06T09:52:39.850Z,2.5
2023-03-06T09:53:49.524Z,2.8
2023-03-06T09:54:59.268Z,2.3
2023-03-06T09:56:07.889Z,2.1
2023-03-06T09:57:17.566Z,2.2
2023-03-06T09:58:25.252Z,2.6
2023-03-06T09:59:34.939Z,1.9
2023-03-06T10:00:44.630Z,1.9
2023-03-06T10:01:52.391Z,2.1
2023-03-06T10:03:02.116Z,2.2
2023-03-06T10:04:11.764Z,2.6
2023-03-06T10:05:20.624Z,2.3
2023-03-06T10:06:30.280Z,1.7
2023-03-06T10:07:38.008Z,2.2
2023-03-06T10:08:47.897Z,2.1
2023-03-06T10:09:56.599Z,2.5
2023-03-06T10:11:06.278Z,2.2
2023-03-06T10:12:16.044Z,1.8
2023-03-06T10:13:25.717Z,2.4
2023-03-06T10:14:35.499Z,2.1
2023-03-06T10:15:45.208Z,2
2023-03-06T10:16:54.860Z,2.3
2023-03-06T10:18:03.539Z,2.7
2023-03-06T10:19:13.220Z,2.8
2023-03-06T10:20:23.052Z,2.8
2023-03-06T10:21:32.668Z,2.5
2023-03-06T10:22:42.857Z,3
2023-03-06T10:23:52.032Z,2.5
2023-03-06T10:25:02.749Z,2.2
2023-03-06T10:26:12.442Z,2.1
2023-03-06T10:27:22.064Z,2.2
2023-03-06T10:28:33.267Z,2.7
2023-03-06T10:29:42.149Z,2.1
2023-03-06T10:30:51.102Z,1.7
2023-03-06T10:32:00.779Z,2.5
2023-03-06T10:33:08.514Z,2.1
2023-03-06T10:34:18.118Z,2.2
2023-03-06T10:35:30.349Z,2.3
2023-03-06T10:36:36.490Z,2.3
2023-03-06T10:37:46.169Z,2.2
2023-03-06T10:38:53.822Z,2
2023-03-06T10:40:02.493Z,2.9
2023-03-06T10:41:12.152Z,2.5
2023-03-06T10:42:21.837Z,2.3
2023-03-06T10:43:32.091Z,2.4
2023-03-06T10:44:42.199Z,2.7
2023-03-06T10:45:50.859Z,2.6
2023-03-06T10:47:00.507Z,2.7
2023-03-06T10:48:10.164Z,2.6
2023-03-06T10:49:19.857Z,2.9
2023-03-06T10:50:29.538Z,3
2023-03-06T10:51:37.180Z,2.4
2023-03-06T10:52:46.853Z,2.4
2023-03-06T10:53:56.574Z,2.7
2023-03-06T10:55:05.264Z,2.6
2023-03-06T10:56:14.955Z,2.7
2023-03-06T10:57:23.647Z,2.4
2023-03-06T10:58:33.422Z,2.9
2023-03-06T10:59:43.107Z,1.9
2023-03-06T11:00:52.789Z,2
2023-03-06T11:02:02.516Z,2.3
2023-03-06T11:03:12.161Z,1.9
2023-03-06T11:04:20.903Z,2.5
2023-03-06T11:05:30.556Z,2.2
2023-03-06T11:06:40.275Z,2.1
2023-03-06T11:07:49.936Z,2.4
2023-03-06T11:08:59.656Z,2
2023-03-06T11:10:08.356Z,2.5
2023-03-06T11:11:25.129Z,2.6
2023-03-06T11:12:28.718Z,1.9
2023-03-06T11:13:38.368Z,2.2
2023-03-06T11:14:48.082Z,2.6
2023-03-06T11:15:55.814Z,2.5
2023-03-06T11:17:05.497Z,2.6
2023-03-06T11:18:15.201Z,2.5
2023-03-06T11:19:23.876Z,2.5
2023-03-06T11:20:44.837Z,2.4
2023-03-06T11:21:43.221Z,2.5
2023-03-06T11:22:50.881Z,2.5
2023-03-06T11:24:00.547Z,2.1
2023-03-06T11:25:09.218Z,2.4
2023-03-06T11:26:18.938Z,2.1
2023-03-06T11:27:28.645Z,2.2
2023-03-06T11:28:36.345Z,2.4
2023-03-06T11:29:45.989Z,3.2
2023-03-06T11:30:54.640Z,3.3
2023-03-06T11:32:04.383Z,3.6
2023-03-06T11:33:14.030Z,2.9
2023-03-06T11:34:21.702Z,2
2023-03-06T11:35:30.378Z,2.2
2023-03-06T11:36:39.001Z,2.6
2023-03-06T11:37:47.725Z,2
2023-03-06T11:38:57.406Z,2.2
2023-03-06T11:40:06.052Z,1.9
2023-03-06T11:41:13.723Z,1.9
2023-03-06T11:42:23.385Z,2.2
2023-03-06T11:43:31.033Z,2.4
2023-03-06T11:44:39.707Z,1.8
2023-03-06T11:45:49.353Z,2.2
2023-03-06T11:46:59.084Z,2
2023-03-06T11:48:08.700Z,3.4
2023-03-06T11:49:17.334Z,3.1
2023-03-06T11:50:24.972Z,4.4
2023-03-06T11:51:34.956Z,2.4
2023-03-06T11:52:42.620Z,2.3
2023-03-06T11:53:51.279Z,2.4
2023-03-06T11:55:01.031Z,2.5
2023-03-06T11:56:09.630Z,2.6
2023-03-06T11:57:19.310Z,2.6
2023-03-06T11:58:28.961Z,2.6
2023-03-06T11:59:38.666Z,2.3
2023-03-06T12:00:48.382Z,2.5
2023-03-06T12:01:57.001Z,2.3
2023-03-06T12:03:06.674Z,1.9
2023-03-06T12:04:16.317Z,2.4
2023-03-06T12:05:24.027Z,2.4
2023-03-06T12:06:33.720Z,2.3
2023-03-06T12:07:43.379Z,2.3
2023-03-06T12:08:51.025Z,2.6
2023-03-06T12:10:00.687Z,3
2023-03-06T12:13:27.760Z,3
2023-03-06T12:14:37.343Z,2.9
2023-03-06T12:15:46.025Z,2.8
2023-03-06T12:16:55.773Z,4.3
2023-03-06T12:18:05.400Z,4.8
2023-03-06T12:19:14.117Z,4
2023-03-06T12:20:23.793Z,4
2023-03-06T12:21:31.556Z,2.5
2023-03-06T12:22:41.237Z,2.4
2023-03-06T12:23:50.069Z,2.3
2023-03-06T12:24:56.537Z,2.2
2023-03-06T12:26:06.259Z,2.5
2023-03-06T12:27:14.954Z,2.8
2023-03-06T12:28:23.629Z,3
2023-03-06T12:29:33.294Z,2.6
2023-03-06T12:30:42.950Z,2.7
2023-03-06T12:31:52.683Z,2.3
2023-03-06T12:33:02.317Z,2.5
2023-03-06T12:34:11.963Z,2.6
2023-03-06T12:35:21.655Z,2.6
2023-03-06T12:36:30.241Z,2.1
2023-03-06T12:37:39.943Z,2.3
2023-03-06T12:38:49.638Z,2.4
2023-03-06T12:39:57.274Z,3
2023-03-06T12:41:05.931Z,2.3
2023-03-06T12:42:22.852Z,2.6
2023-03-06T12:43:26.231Z,2.6
2023-03-06T12:44:34.893Z,2.6
2023-03-06T12:45:44.581Z,3.1
2023-03-06T12:46:53.236Z,2.6
2023-03-06T12:48:02.921Z,2.9
2023-03-06T12:49:11.253Z,2.4
2023-03-06T12:50:21.220Z,2.6
2023-03-06T12:51:30.886Z,2.3
2023-03-06T12:52:38.623Z,2.5
2023-03-06T12:53:48.299Z,2.8
2023-03-06T12:54:56.992Z,3.1
2023-03-06T12:56:05.745Z,3.9
2023-03-06T12:57:15.500Z,4.3
2023-03-06T12:58:23.060Z,4.7
2023-03-06T12:59:32.721Z,3.8
2023-03-06T13:00:41.399Z,4.8
2023-03-06T13:01:50.104Z,4.6
2023-03-06T13:02:59.742Z,3.9
2023-03-06T13:04:08.401Z,3
2023-03-06T13:05:17.143Z,2.7
2023-03-06T13:06:26.689Z,2
2023-03-06T13:07:36.389Z,2.6
2023-03-06T13:08:46.035Z,2.3
2023-03-06T13:09:55.713Z,1.9
2023-03-06T13:11:04.359Z,2.2
2023-03-06T13:12:13.087Z,2.7
2023-03-06T13:13:22.732Z,2
2023-03-06T13:14:31.513Z,2
2023-03-06T13:15:41.041Z,2.2
2023-03-06T13:16:48.729Z,2.3
2023-03-06T13:17:58.379Z,2.2
2023-03-06T13:19:07.023Z,2
2023-03-06T13:20:15.738Z,2.2
2023-03-06T13:21:25.383Z,2.3
2023-03-06T13:22:35.022Z,2.8
2023-03-06T13:23:45.197Z,2.4
2023-03-06T13:24:55.008Z,2.2
2023-03-06T13:26:05.553Z,2.2
2023-03-06T13:27:15.169Z,2.6
2023-03-06T13:28:23.816Z,2.7
2023-03-06T13:29:32.471Z,3
2023-03-06T13:30:42.188Z,3.4
2023-03-06T13:31:50.802Z,3.3
2023-03-06T13:32:59.492Z,3.4
2023-03-06T13:34:09.145Z,3.5
2023-03-06T13:35:16.785Z,3.8
2023-03-06T13:36:26.455Z,3.9
2023-03-06T13:37:36.139Z,3.3
2023-03-06T13:38:45.746Z,3.4
2023-03-06T13:39:55.462Z,3.6
2023-03-06T13:41:04.049Z,2.7
2023-03-06T13:42:12.715Z,2.7
2023-03-06T13:43:22.410Z,2.1
2023-03-06T13:44:31.043Z,2.1
2023-03-06T13:45:40.724Z,2.9
2023-03-06T13:46:49.358Z,2.5
2023-03-06T13:49:09.719Z,2.1
2023-03-06T13:50:18.403Z,2.3
2023-03-06T13:51:28.055Z,2.4
2023-03-06T13:52:37.742Z,2.5
2023-03-06T13:53:45.469Z,2.6
2023-03-06T13:54:55.045Z,3
2023-03-06T13:56:03.703Z,3.1
2023-03-06T13:57:12.377Z,2.6
2023-03-06T13:58:22.054Z,2.9
2023-03-06T13:59:31.718Z,4.3
2023-03-06T14:00:40.389Z,4.2
2023-03-06T14:01:50.150Z,4
2023-03-06T14:02:59.774Z,4.6
2023-03-06T14:04:09.419Z,4.8
2023-03-06T14:05:19.062Z,5
2023-03-06T14:06:27.737Z,4.3
2023-03-06T14:07:37.399Z,4.5
2023-03-06T14:08:45.080Z,3.8
2023-03-06T14:09:52.833Z,3.6
2023-03-06T14:11:02.482Z,3.3
2023-03-06T14:12:12.145Z,3.6
2023-03-06T14:13:19.838Z,3.4
2023-03-06T14:14:29.502Z,3.9
2023-03-06T14:15:37.204Z,4.1
2023-03-06T14:16:50.083Z,3.3
2023-03-06T14:17:56.410Z,3.4
2023-03-06T14:19:04.089Z,3
2023-03-06T14:20:13.729Z,2.9
2023-03-06T14:21:22.366Z,3.3
2023-03-06T14:22:31.021Z,3
2023-03-06T14:23:40.710Z,2.8
2023-03-06T14:24:49.365Z,2.8
2023-03-06T14:25:59.047Z,2.8
2023-03-06T14:27:08.702Z,3.2
2023-03-06T14:28:17.335Z,3.2
2023-03-06T14:29:27.059Z,3.1
2023-03-06T14:30:35.697Z,3.4
2023-03-06T14:31:44.358Z,2.7
2023-03-06T14:32:54.021Z,2.8
2023-03-06T14:34:01.726Z,3.1
2023-03-06T14:35:10.389Z,2.8
2023-03-06T14:36:20.057Z,2.8
2023-03-06T14:37:28.698Z,3.4
2023-03-06T14:38:38.418Z,2.6
2023-03-06T14:39:48.044Z,3
2023-03-06T14:40:56.698Z,2.9
2023-03-06T14:42:06.420Z,2.6
2023-03-06T14:43:16.021Z,2.9
2023-03-06T14:44:24.701Z,2.8
2023-03-06T14:45:34.357Z,2.7
2023-03-06T14:46:44.069Z,2.7
2023-03-06T14:47:53.706Z,3.2
2023-03-06T14:49:02.397Z,2.9
2023-03-06T14:50:10.035Z,3.2
2023-03-06T14:51:19.728Z,2.8
2023-03-06T14:52:28.380Z,3
2023-03-06T14:53:38.148Z,3.1
2023-03-06T14:54:47.819Z,3.1
2023-03-06T14:55:56.499Z,3.4
2023-03-06T14:57:06.159Z,3.5
2023-03-06T14:58:15.933Z,3.4
2023-03-06T14:59:25.621Z,3.1
2023-03-06T15:00:34.306Z,2.7
2023-03-06T15:01:42.015Z,2.7
2023-03-06T15:02:50.664Z,2.3
2023-03-06T15:04:00.326Z,2.5
2023-03-06T15:05:08.965Z,1.5
2023-03-06T15:06:18.632Z,1.8
2023-03-06T15:07:28.322Z,1.9
2023-03-06T15:08:36.980Z,2
2023-03-06T15:09:46.701Z,2.2
2023-03-06T15:10:56.349Z,2.7
2023-03-06T15:12:05.996Z,2.2
2023-03-06T15:13:15.679Z,2.4
2023-03-06T15:14:25.370Z,2.4
2023-03-06T15:15:35.031Z,1.9
2023-03-06T15:16:44.742Z,2.6
2023-03-06T15:17:52.364Z,2.5
2023-03-06T15:19:02.052Z,1.7
2023-03-06T15:20:09.772Z,2.6
2023-03-06T15:21:19.459Z,2.7
2023-03-06T15:22:29.129Z,2.3
2023-03-06T15:23:37.802Z,2.1
2023-03-06T15:24:47.450Z,2
2023-03-06T15:25:57.100Z,1.9
2023-03-06T15:27:06.778Z,2.6
2023-03-06T15:28:16.401Z,2.1
2023-03-06T15:29:24.088Z,2.3
2023-03-06T15:30:33.895Z,2.3
2023-03-06T15:31:43.528Z,2.2
2023-03-06T15:32:51.067Z,2.6
2023-03-06T15:34:00.754Z,2.6
2023-03-06T15:35:10.445Z,3.2
2023-03-06T15:36:18.075Z,2.8
2023-03-06T15:37:27.743Z,2.8
2023-03-06T15:38:37.021Z,2.3
2023-03-06T15:39:48.210Z,2.3
2023-03-06T15:40:57.910Z,2.4
2023-03-06T15:42:06.536Z,2.8
2023-03-06T15:43:16.205Z,3.2
2023-03-06T15:44:24.877Z,2.3
2023-03-06T15:45:34.566Z,2.5
2023-03-06T15:46:44.227Z,3
2023-03-06T15:47:53.873Z,2.4
2023-03-06T15:49:03.528Z,2.6
2023-03-06T15:50:13.228Z,3
2023-03-06T15:51:19.992Z,2.9
2023-03-06T15:52:29.535Z,3.1
2023-03-06T15:53:38.198Z,2.9
2023-03-06T15:54:45.907Z,3.1
2023-03-06T15:55:55.629Z,3.8
2023-03-06T15:57:04.306Z,3.8
2023-03-06T15:58:12.972Z,3.3
2023-03-06T15:59:22.622Z,3.7
2023-03-06T16:00:32.289Z,3.6
2023-03-06T16:01:41.963Z,3
2023-03-06T16:02:50.657Z,3.4
2023-03-06T16:04:00.303Z,3.1
2023-03-06T16:05:08.941Z,3.4
2023-03-06T16:06:18.656Z,3.4